METAR Data
IDs: Format: Raw Decoded Include TAF

Data at: 1833 UTC 07 Dec 2021

METAR for:KEIK (Erie Muni, CO, US)
Text:KEIK 071815Z AUTO 15009G14KT 10SM CLR 05/M09 A2990 RMK AO2 T00461086 PWINO
Temperature: 4.6°C ( 40°F)
Dewpoint: -8.6°C ( 17°F) [RH = 38%]
Pressure (altimeter):29.90 inches Hg (1012.6 mb)
Winds:from the SSE (150 degrees) at 10 MPH (9 knots; 4.6 m/s) gusting to 16 MPH (14 knots; 7.2 m/s)
Visibility:10 or more sm (16+ km)
Ceiling:at least 12,000 feet AGL
Clouds:sky clear below 12,000 feet AGL
QC Flag:automated observation with no human augmentation